Time;durP1;ratioP1;P1;durP2;ratioP2;P2;SDS_P1;SDS_P2;PMS_P1;PMS_P2;Temp;Humidity;BMP_temperature;BMP_pressure;BME280_temperature;BME280_humidity;BME280_pressure;Samples;Min_cycle;Max_cycle;Signal;HPM_P1;HPM_P2
2021/03/16 00:01:08;;;;;;;15.57;9.77;;;;;;;0.72;90.59;95571.97;5070405;28;20071;-46
2021/03/16 00:03:50;;;;;;;18.30;11.55;;;;;;;0.74;90.74;95569.78;5070279;28;20049;-47
2021/03/16 00:06:37;;;;;;;15.82;10.10;;;;;;;0.79;90.38;95575.09;5073695;28;20045;-48
2021/03/16 00:09:03;;;;;;;16.63;11.43;;;;;;;0.85;90.35;95577.44;5075894;28;20048;-45
2021/03/16 00:11:30;;;;;;;18.15;11.30;;;;;;;0.85;90.41;95582.75;5094234;28;20529;-44
2021/03/16 00:13:56;;;;;;;17.48;10.90;;;;;;;0.93;90.23;95579.47;5075992;28;20093;-49
2021/03/16 00:16:25;;;;;;;18.95;12.13;;;;;;;0.97;90.24;95579.72;5074945;28;20056;-46
2021/03/16 00:18:53;;;;;;;17.38;9.18;;;;;;;0.96;89.74;95585.34;5073857;28;20049;-49
2021/03/16 00:21:20;;;;;;;12.02;7.85;;;;;;;0.88;90.11;95597.41;5073522;28;20056;-44
2021/03/16 00:23:46;;;;;;;16.90;12.10;;;;;;;0.92;90.36;95593.88;5073472;28;20059;-45
2021/03/16 00:26:13;;;;;;;17.35;11.60;;;;;;;0.97;90.41;95597.56;5076026;28;20050;-46
2021/03/16 00:28:40;;;;;;;19.02;11.85;;;;;;;0.96;90.26;95599.44;5082361;28;20044;-47
2021/03/16 00:31:07;;;;;;;15.45;9.38;;;;;;;0.90;90.61;95611.22;5095312;28;20048;-48
2021/03/16 00:33:34;;;;;;;15.77;10.63;;;;;;;0.96;90.16;95602.13;5096344;28;20382;-47
2021/03/16 00:36:00;;;;;;;20.10;11.80;;;;;;;1.09;90.02;95608.66;5077084;28;20089;-45
2021/03/16 00:38:27;;;;;;;15.57;10.02;;;;;;;0.93;90.11;95608.00;5085858;28;20391;-45
2021/03/16 00:40:54;;;;;;;21.10;11.98;;;;;;;1.03;90.11;95612.44;5073948;28;20130;-49
2021/03/16 00:43:20;;;;;;;16.52;11.32;;;;;;;1.02;90.15;95616.97;5073319;28;20068;-47
2021/03/16 00:45:47;;;;;;;16.00;10.70;;;;;;;1.04;90.03;95611.38;5073546;28;20052;-44
2021/03/16 00:48:18;;;;;;;19.92;12.63;;;;;;;1.09;90.11;95617.44;5064221;28;20045;-45
2021/03/16 00:50:49;;;;;;;18.60;11.70;;;;;;;1.02;90.16;95618.84;5081231;28;20051;-47
2021/03/16 00:53:16;;;;;;;17.38;9.52;;;;;;;1.06;89.70;95623.34;5094750;28;20052;-49
2021/03/16 00:55:46;;;;;;;16.10;11.18;;;;;;;1.08;90.13;95626.53;5076391;28;20103;-48
2021/03/16 00:58:13;;;;;;;15.55;10.65;;;;;;;1.03;89.97;95620.44;5089870;28;20135;-47
2021/03/16 01:00:40;;;;;;;17.48;10.93;;;;;;;1.06;90.32;95620.66;5072905;28;20102;-48
2021/03/16 01:03:07;;;;;;;15.77;10.68;;;;;;;1.03;90.06;95623.09;5075181;28;20077;-46
2021/03/16 01:05:34;;;;;;;13.60;7.80;;;;;;;1.03;89.84;95625.75;5096059;22;20052;-52
2021/03/16 01:08:01;;;;;;;15.75;10.55;;;;;;;1.08;90.27;95623.88;5082855;28;20090;-54
2021/03/16 01:10:30;;;;;;;16.17;10.70;;;;;;;1.15;89.54;95628.88;5071384;28;20141;-55
2021/03/16 01:12:56;;;;;;;13.95;8.73;;;;;;;1.06;89.94;95623.34;5072387;28;20055;-52
2021/03/16 01:15:23;;;;;;;15.32;10.23;;;;;;;1.08;90.01;95628.41;5072287;28;20106;-54
2021/03/16 01:17:49;;;;;;;17.25;9.38;;;;;;;1.09;89.63;95628.09;5072345;28;20067;-52
2021/03/16 01:20:19;;;;;;;14.77;9.07;;;;;;;1.12;89.52;95630.22;5071759;28;20131;-55
2021/03/16 01:22:46;;;;;;;14.13;9.65;;;;;;;1.06;89.63;95631.31;5072721;28;20048;-54
2021/03/16 01:25:13;;;;;;;15.25;9.48;;;;;;;1.10;89.81;95627.03;5072225;28;20417;-54
2021/03/16 01:27:40;;;;;;;17.02;9.30;;;;;;;1.14;89.59;95632.63;5072229;28;20059;-53
2021/03/16 01:30:08;;;;;;;13.32;8.20;;;;;;;1.18;89.09;95636.31;5071492;28;20048;-54
2021/03/16 01:32:35;;;;;;;14.88;7.75;;;;;;;1.12;89.21;95640.09;5072390;28;20171;-54
2021/03/16 01:35:04;;;;;;;13.27;8.98;;;;;;;1.09;89.63;95637.97;5054300;28;20075;-53
2021/03/16 01:37:31;;;;;;;14.35;8.13;;;;;;;1.05;89.70;95635.06;5072117;28;20555;-52
2021/03/16 01:39:57;;;;;;;14.52;8.65;;;;;;;1.06;89.51;95639.31;5071486;28;20048;-51
2021/03/16 01:42:24;;;;;;;14.98;8.68;;;;;;;1.09;89.36;95640.63;5072006;28;20502;-50
2021/03/16 01:44:50;;;;;;;18.15;10.07;;;;;;;1.17;89.41;95634.72;5071768;28;20465;-51
2021/03/16 01:47:17;;;;;;;12.15;8.65;;;;;;;1.20;88.90;95644.00;5070844;28;20053;-52
2021/03/16 01:49:45;;;;;;;14.60;8.98;;;;;;;1.16;89.20;95646.44;5071492;28;20055;-52
2021/03/16 01:52:12;;;;;;;11.13;6.05;;;;;;;1.12;88.91;95640.88;5072038;28;20083;-51
2021/03/16 01:54:40;;;;;;;13.00;7.70;;;;;;;1.07;89.11;95651.59;5072267;28;20049;-51
2021/03/16 01:57:10;;;;;;;12.00;7.07;;;;;;;1.09;88.97;95646.75;5072041;28;20075;-50
2021/03/16 01:59:56;;;;;;;13.32;9.63;;;;;;;1.15;89.17;95650.19;5071204;28;20500;-52
2021/03/16 02:02:41;;;;;;;15.02;9.52;;;;;;;1.05;89.44;95651.06;5072025;28;20052;-48
2021/03/16 02:05:26;;;;;;;14.05;7.38;;;;;;;1.14;88.84;95648.59;5071779;28;20091;-50
2021/03/16 02:08:19;;;;;;;14.35;8.93;;;;;;;1.21;88.49;95650.94;5075347;28;20048;-49
2021/03/16 02:11:17;;;;;;;16.65;9.05;;;;;;;1.16;88.37;95659.75;5074572;28;20090;-48
2021/03/16 02:14:19;;;;;;;16.35;8.95;;;;;;;1.24;87.88;95663.72;5071797;28;20041;-51
2021/03/16 02:17:13;;;;;;;12.15;8.05;;;;;;;1.20;88.07;95660.78;5071882;28;20135;-51
2021/03/16 02:20:17;;;;;;;13.32;8.18;;;;;;;1.22;87.74;95674.63;5070859;28;20520;-49
2021/03/16 02:23:05;;;;;;;13.95;9.82;;;;;;;1.16;86.92;95662.44;5071475;28;20517;-52
2021/03/16 02:26:29;;;;;;;13.70;8.52;;;;;;;1.19;87.32;95661.88;5071425;28;20041;-51
2021/03/16 02:29:20;;;;;;;16.98;9.45;;;;;;;1.22;87.64;95669.31;5070394;28;20371;-50
2021/03/16 02:32:09;;;;;;;14.95;7.80;;;;;;;1.15;87.62;95658.97;5071119;28;20132;-51
2021/03/16 02:34:59;;;;;;;13.80;7.57;;;;;;;1.12;87.44;95664.84;5071284;28;20056;-51
2021/03/16 02:37:45;;;;;;;15.05;8.32;;;;;;;1.15;87.58;95669.63;5071640;28;20154;-49
2021/03/16 02:40:34;;;;;;;10.95;6.57;;;;;;;1.16;87.36;95667.75;5070435;28;20052;-54
2021/03/16 02:43:20;;;;;;;14.48;8.90;;;;;;;1.14;87.46;95675.25;5071236;28;20048;-50
2021/03/16 02:46:06;;;;;;;13.77;8.85;;;;;;;1.20;87.41;95675.97;5071198;28;20048;-54
2021/03/16 02:48:54;;;;;;;15.70;9.20;;;;;;;1.26;87.43;95678.34;5071343;28;20174;-56
2021/03/16 02:51:40;;;;;;;12.13;7.70;;;;;;;1.22;86.96;95676.50;5071085;28;20143;-54
2021/03/16 02:54:26;;;;;;;14.65;6.63;;;;;;;1.16;86.92;95681.06;5071101;28;20048;-55
2021/03/16 02:57:29;;;;;;;16.55;8.00;;;;;;;1.20;87.11;95682.09;5071098;28;20049;-53
2021/03/16 03:00:15;;;;;;;17.17;8.45;;;;;;;1.16;87.00;95684.53;5068404;28;20048;-51
2021/03/16 03:03:01;;;;;;;15.00;9.00;;;;;;;1.18;86.98;95681.59;5071086;28;20052;-55
2021/03/16 03:05:48;;;;;;;15.57;8.00;;;;;;;1.23;86.92;95686.88;5070952;28;20472;-56
2021/03/16 03:08:34;;;;;;;16.63;8.43;;;;;;;1.19;86.81;95682.41;5077385;28;20048;-54
2021/03/16 03:11:19;;;;;;;12.77;7.85;;;;;;;1.17;86.92;95686.16;5090745;28;20598;-53
2021/03/16 03:14:06;;;;;;;16.75;8.50;;;;;;;1.19;86.96;95688.53;5091512;28;20123;-53
2021/03/16 03:16:51;;;;;;;15.43;9.05;;;;;;;1.27;86.74;95687.13;5085922;28;20150;-55
2021/03/16 03:19:37;;;;;;;16.02;8.88;;;;;;;1.21;86.98;95696.25;5071104;28;20122;-56
2021/03/16 03:22:29;;;;;;;14.32;8.45;;;;;;;1.16;86.63;95697.84;5071307;28;20048;-50
2021/03/16 03:25:19;;;;;;;13.55;8.20;;;;;;;1.31;86.18;95696.16;5071949;28;20048;-50
2021/03/16 03:28:09;;;;;;;15.30;6.75;;;;;;;1.17;86.37;95707.47;5076531;28;20114;-47
2021/03/16 03:30:59;;;;;;;15.73;8.48;;;;;;;1.22;86.39;95706.63;5091461;28;20408;-50
2021/03/16 03:33:46;;;;;;;13.00;7.80;;;;;;;1.21;86.08;95722.91;5092229;28;20044;-47
2021/03/16 03:36:35;;;;;;;12.73;6.28;;;;;;;1.04;86.90;95718.75;5086240;28;20355;-49
2021/03/16 03:39:22;;;;;;;15.43;7.72;;;;;;;0.87;88.00;95711.09;5071773;28;20048;-47
2021/03/16 03:42:08;;;;;;;16.80;8.85;;;;;;;1.01;87.57;95723.81;5075825;28;20049;-48
2021/03/16 03:44:54;;;;;;;17.65;11.05;;;;;;;1.22;87.72;95729.81;5075563;28;20105;-48
2021/03/16 03:47:41;;;;;;;18.10;8.52;;;;;;;0.97;88.14;95720.91;5075289;28;20066;-51
2021/03/16 03:50:27;;;;;;;17.58;9.13;;;;;;;0.97;88.42;95712.91;5074688;28;20047;-48
2021/03/16 03:53:14;;;;;;;14.40;8.13;;;;;;;1.02;87.74;95720.88;5075201;28;20051;-51
2021/03/16 03:56:00;;;;;;;13.10;7.78;;;;;;;1.00;87.98;95736.34;5075384;28;20080;-49
2021/03/16 03:58:47;;;;;;;16.13;7.78;;;;;;;1.11;87.66;95729.88;5074759;28;20056;-49
2021/03/16 04:01:33;;;;;;;16.98;9.27;;;;;;;1.15;87.36;95735.47;5074804;28;20074;-48
2021/03/16 04:04:18;;;;;;;15.45;9.32;;;;;;;1.05;87.90;95746.19;5074806;28;20056;-48
2021/03/16 04:07:04;;;;;;;15.30;8.75;;;;;;;1.12;87.72;95746.66;5074799;28;20484;-48
2021/03/16 04:09:48;;;;;;;17.90;9.77;;;;;;;1.19;87.94;95746.34;5091713;28;20051;-48
2021/03/16 04:12:35;;;;;;;15.07;7.97;;;;;;;0.93;88.40;95749.16;5095126;28;20553;-48
2021/03/16 04:15:22;;;;;;;15.00;9.43;;;;;;;0.94;88.57;95748.09;5095156;28;20036;-48
2021/03/16 04:18:08;;;;;;;16.17;8.38;;;;;;;0.91;88.44;95746.78;5083746;28;20417;-49
2021/03/16 04:20:53;;;;;;;15.77;9.07;;;;;;;1.02;87.72;95746.72;5074240;28;20048;-49
2021/03/16 04:23:39;;;;;;;15.27;8.70;;;;;;;1.04;87.50;95755.22;5074513;28;20127;-53
2021/03/16 04:26:24;;;;;;;19.85;9.85;;;;;;;1.04;87.53;95761.38;5074546;28;20057;-49
2021/03/16 04:29:10;;;;;;;23.48;10.07;;;;;;;1.07;87.21;95766.16;5073541;28;20052;-49
2021/03/16 04:31:55;;;;;;;12.93;7.75;;;;;;;0.96;87.11;95759.28;5074586;28;20045;-52
2021/03/16 04:34:40;;;;;;;17.73;8.57;;;;;;;1.03;87.38;95761.63;5074153;28;20461;-50
2021/03/16 04:37:25;;;;;;;14.75;7.57;;;;;;;0.98;87.10;95767.81;5074130;28;20052;-51
2021/03/16 04:40:11;;;;;;;14.20;7.88;;;;;;;1.05;87.26;95770.94;5073780;28;20048;-49
2021/03/16 04:42:56;;;;;;;20.75;9.30;;;;;;;1.04;87.23;95776.53;5073714;28;20055;-53
2021/03/16 04:45:41;;;;;;;17.00;8.27;;;;;;;1.09;86.77;95779.97;5073388;28;20048;-52
2021/03/16 04:48:26;;;;;;;16.63;7.78;;;;;;;1.00;86.62;95770.97;5073546;28;20064;-49
2021/03/16 04:51:11;;;;;;;19.17;8.57;;;;;;;1.06;86.87;95780.53;5072945;28;20501;-50
2021/03/16 04:53:56;;;;;;;17.08;8.20;;;;;;;1.03;86.70;95778.41;5073974;28;20048;-50
2021/03/16 04:56:41;;;;;;;13.07;7.10;;;;;;;1.01;86.59;95788.56;5075418;28;20048;-52
2021/03/16 04:59:27;;;;;;;15.75;8.32;;;;;;;1.06;86.89;95790.41;5059656;28;20481;-54
2021/03/16 05:02:14;;;;;;;14.02;6.57;;;;;;;1.03;86.09;95788.28;5074025;28;20071;-52
2021/03/16 05:04:59;;;;;;;19.45;8.95;;;;;;;1.00;87.26;95792.28;5073294;28;20037;-53
2021/03/16 05:07:44;;;;;;;13.65;6.57;;;;;;;0.92;86.75;95804.31;5073105;28;20190;-54
2021/03/16 05:10:30;;;;;;;19.67;6.32;;;;;;;0.93;86.55;95797.91;5072969;28;20049;-56
2021/03/16 05:13:15;;;;;;;14.32;7.07;;;;;;;1.04;86.49;95801.34;5073083;28;20045;-52
2021/03/16 05:16:01;;;;;;;13.48;7.97;;;;;;;1.12;86.35;95790.09;5073382;28;20123;-56
2021/03/16 05:18:49;;;;;;;13.52;8.13;;;;;;;1.19;86.16;95812.97;5073518;28;20063;-54
2021/03/16 05:21:34;;;;;;;12.02;5.22;;;;;;;1.00;86.25;95813.59;5072909;28;20098;-54
2021/03/16 05:24:19;;;;;;;14.02;7.07;;;;;;;1.02;86.33;95816.78;5073207;28;20072;-53
2021/03/16 05:27:04;;;;;;;19.52;8.30;;;;;;;1.05;86.13;95812.78;5073717;28;20055;-55
2021/03/16 05:29:49;;;;;;;17.33;8.68;;;;;;;1.01;85.86;95825.88;5073142;28;20051;-51
2021/03/16 05:32:34;;;;;;;12.65;6.47;;;;;;;1.04;86.21;95822.66;5073519;28;20501;-54
2021/03/16 05:35:19;;;;;;;15.23;7.07;;;;;;;1.12;85.24;95822.06;5073512;28;20048;-53
2021/03/16 05:38:07;;;;;;;13.60;6.50;;;;;;;1.10;85.40;95829.53;5093080;28;20504;-53
2021/03/16 05:40:51;;;;;;;15.00;7.72;;;;;;;1.12;85.51;95826.59;5094264;28;20044;-51
2021/03/16 05:43:37;;;;;;;14.43;8.23;;;;;;;1.24;85.18;95831.63;5094128;28;20055;-49
2021/03/16 05:46:22;;;;;;;15.60;6.70;;;;;;;1.13;85.33;95830.84;5074961;28;20056;-54
2021/03/16 05:49:08;;;;;;;17.30;6.38;;;;;;;1.05;85.67;95836.78;5072690;28;20044;-51
2021/03/16 05:51:54;;;;;;;15.88;8.02;;;;;;;1.07;85.72;95834.59;5072524;28;20056;-51
2021/03/16 05:54:40;;;;;;;11.70;6.13;;;;;;;1.08;85.39;95845.00;5072389;28;20510;-50
2021/03/16 05:57:28;;;;;;;13.23;6.00;;;;;;;1.04;85.47;95849.28;5072453;28;20631;-49
2021/03/16 06:00:14;;;;;;;14.27;6.90;;;;;;;1.15;85.76;95848.16;5071829;28;20059;-49
2021/03/16 06:03:00;;;;;;;11.68;6.72;;;;;;;1.12;85.32;95848.72;5071588;28;20052;-55
2021/03/16 06:05:48;;;;;;;12.18;5.60;;;;;;;1.02;85.82;95854.09;5079204;28;20052;-56
2021/03/16 06:08:34;;;;;;;16.35;6.93;;;;;;;1.04;85.20;95846.63;5078430;28;20055;-50
2021/03/16 06:11:19;;;;;;;13.60;5.32;;;;;;;1.00;85.42;95856.22;5091712;28;20052;-53
2021/03/16 06:14:04;;;;;;;15.45;5.95;;;;;;;1.16;85.62;95865.75;5072380;28;20125;-48
2021/03/16 06:16:49;;;;;;;13.38;6.45;;;;;;;1.02;85.79;95863.94;5072483;28;20044;-50
2021/03/16 06:19:36;;;;;;;13.95;6.75;;;;;;;1.03;85.49;95866.34;5090316;28;20055;-50
2021/03/16 06:22:22;;;;;;;13.50;6.63;;;;;;;1.09;85.67;95864.44;5087169;28;20044;-54
2021/03/16 06:25:07;;;;;;;15.68;5.68;;;;;;;0.96;86.13;95881.81;5072242;28;20131;-48
2021/03/16 06:28:03;;;;;;;16.40;6.03;;;;;;;1.00;85.96;95882.88;5072666;28;20497;-51
2021/03/16 06:30:49;;;;;;;9.77;4.80;;;;;;;1.04;86.04;95894.59;5072035;28;20051;-49
2021/03/16 06:33:35;;;;;;;14.00;5.88;;;;;;;0.99;86.06;95885.81;5087563;28;20478;-52
2021/03/16 06:36:25;;;;;;;22.17;9.43;;;;;;;1.03;86.26;95884.97;5092125;28;20048;-52
2021/03/16 06:39:18;;;;;;;12.52;6.63;;;;;;;1.16;85.75;95892.38;5075570;28;20078;-53
2021/03/16 06:42:03;;;;;;;10.35;5.50;;;;;;;1.11;85.57;95899.63;5091873;28;20044;-50
2021/03/16 06:45:04;;;;;;;9.98;5.22;;;;;;;1.12;85.60;95899.34;5091079;28;20385;-51
2021/03/16 06:47:49;;;;;;;12.65;6.40;;;;;;;1.19;85.82;95911.56;5072510;28;20052;-50
2021/03/16 06:50:35;;;;;;;13.10;6.35;;;;;;;1.07;86.43;95920.69;5071262;28;20043;-52
2021/03/16 06:53:20;;;;;;;8.60;5.25;;;;;;;0.88;87.51;95928.47;5071981;28;20044;-51
2021/03/16 06:56:05;;;;;;;11.88;5.22;;;;;;;0.72;88.53;95918.91;5071674;28;20468;-53
2021/03/16 06:58:51;;;;;;;9.80;5.78;;;;;;;0.70;88.51;95927.16;5071940;28;20117;-49
2021/03/16 07:01:36;;;;;;;13.82;6.97;;;;;;;0.71;88.82;95927.94;5070069;28;20048;-51
2021/03/16 07:04:24;;;;;;;10.73;5.55;;;;;;;0.55;89.53;95937.81;5071414;28;20045;-48
2021/03/16 07:07:11;;;;;;;10.80;5.57;;;;;;;0.60;89.27;95940.50;5071928;28;20036;-54
2021/03/16 07:09:59;;;;;;;12.30;6.28;;;;;;;0.85;88.90;95950.31;5071272;28;20052;-52
2021/03/16 07:12:45;;;;;;;13.15;6.20;;;;;;;0.82;88.66;95950.06;5071887;28;20496;-55
2021/03/16 07:15:30;;;;;;;8.55;4.32;;;;;;;0.68;88.29;95960.44;5076389;28;20044;-50
2021/03/16 07:18:17;;;;;;;10.57;5.10;;;;;;;0.87;87.86;95955.34;5076931;28;20509;-48
2021/03/16 07:21:05;;;;;;;8.23;5.10;;;;;;;0.90;88.08;95958.28;5076934;28;20435;-50
2021/03/16 07:24:05;;;;;;;9.50;5.53;;;;;;;1.09;87.30;95961.16;5090699;28;20044;-52
2021/03/16 07:26:50;;;;;;;12.05;6.97;;;;;;;1.21;89.00;95962.75;5092885;28;20048;-53
2021/03/16 07:29:36;;;;;;;10.65;5.35;;;;;;;0.97;87.86;95973.97;5080904;28;20158;-55
2021/03/16 07:32:21;;;;;;;8.63;5.63;;;;;;;1.24;87.48;95978.19;5087416;28;20094;-50
2021/03/16 07:35:08;;;;;;;11.35;5.55;;;;;;;0.98;87.86;95977.47;5095090;28;20044;-56
2021/03/16 07:37:56;;;;;;;15.35;7.70;;;;;;;1.12;88.35;95976.63;5095703;28;20048;-51
2021/03/16 07:40:43;;;;;;;12.07;6.22;;;;;;;1.02;87.74;95981.19;5095766;28;20067;-55
2021/03/16 07:43:38;;;;;;;11.15;6.63;;;;;;;1.15;87.53;95981.41;5090543;28;20056;-47
2021/03/16 07:46:23;;;;;;;10.20;5.72;;;;;;;1.03;87.48;95977.44;5075421;28;20080;-52
2021/03/16 07:49:11;;;;;;;9.57;6.03;;;;;;;1.08;87.62;95990.75;5088778;28;20048;-48
2021/03/16 07:51:57;;;;;;;10.82;6.13;;;;;;;1.27;86.54;95982.97;5078355;28;20053;-45
2021/03/16 07:54:49;;;;;;;8.98;5.65;;;;;;;1.40;85.89;95993.88;5080807;28;20058;-51
2021/03/16 07:57:35;;;;;;;9.35;4.90;;;;;;;1.35;84.75;95990.41;5089599;28;20048;-45
2021/03/16 08:00:29;;;;;;;9.88;5.75;;;;;;;1.30;84.34;96004.56;5087426;28;20063;-53
2021/03/16 08:03:23;;;;;;;8.80;5.47;;;;;;;1.35;85.22;95993.06;5091475;28;20047;-48
2021/03/16 08:06:22;;;;;;;10.60;5.82;;;;;;;1.57;84.07;96003.41;5094090;28;20048;-52
2021/03/16 08:09:20;;;;;;;13.07;6.28;;;;;;;1.57;84.41;96017.53;5079729;28;20045;-45
2021/03/16 08:12:19;;;;;;;9.15;5.28;;;;;;;1.55;83.65;96017.00;5094788;28;20052;-52
2021/03/16 08:15:14;;;;;;;12.68;6.40;;;;;;;1.78;83.24;96020.91;5090846;28;20051;-45
2021/03/16 08:18:07;;;;;;;10.30;4.63;;;;;;;1.55;83.23;96016.19;5091292;28;20056;-50
2021/03/16 08:21:14;;;;;;;13.73;6.97;;;;;;;1.75;82.81;96029.44;5091097;28;20048;-50
2021/03/16 08:24:16;;;;;;;11.65;7.05;;;;;;;2.20;82.54;96037.50;5092414;28;20105;-49
2021/03/16 08:27:03;;;;;;;11.02;5.03;;;;;;;2.15;81.29;96030.34;5069558;28;20044;-49
2021/03/16 08:29:49;;;;;;;13.35;3.53;;;;;;;1.72;81.89;96037.19;5084173;28;20509;-52
2021/03/16 08:32:35;;;;;;;12.30;5.40;;;;;;;1.91;81.12;96051.53;5083958;28;20078;-52
2021/03/16 08:35:21;;;;;;;10.15;5.57;;;;;;;2.07;81.85;96045.03;5092986;28;20408;-52
2021/03/16 08:38:08;;;;;;;10.25;5.07;;;;;;;1.93;80.46;96036.06;5088230;28;20049;-52
2021/03/16 08:41:18;;;;;;;9.77;5.50;;;;;;;2.01;81.27;96048.00;5084113;28;20082;-53
2021/03/16 08:44:03;;;;;;;12.68;5.72;;;;;;;2.05;80.90;96046.41;5082095;28;20048;-53
2021/03/16 08:46:50;;;;;;;14.55;5.60;;;;;;;2.19;79.96;96046.59;5091312;28;20513;-52
2021/03/16 08:49:39;;;;;;;19.40;6.10;;;;;;;2.13;79.60;96048.50;5076006;28;20056;-51
2021/03/16 08:52:29;;;;;;;12.23;5.53;;;;;;;2.06;80.45;96054.13;5067031;28;20036;-50
2021/03/16 08:55:25;;;;;;;12.10;5.60;;;;;;;2.17;79.53;96054.06;5092666;28;20044;-53
2021/03/16 08:58:10;;;;;;;12.05;5.32;;;;;;;2.27;78.54;96064.69;5092926;28;20199;-54
2021/03/16 09:00:55;;;;;;;11.77;5.03;;;;;;;2.31;77.81;96068.44;5085580;28;20052;-54
2021/03/16 09:03:41;;;;;;;13.93;5.10;;;;;;;2.66;78.07;96058.56;5086669;28;20047;-52
2021/03/16 09:06:26;;;;;;;9.35;4.95;;;;;;;2.93;77.60;96055.44;5090445;28;20497;-49
2021/03/16 09:09:14;;;;;;;10.45;5.65;;;;;;;3.04;74.91;96054.25;5087511;28;20127;-47
2021/03/16 09:11:59;;;;;;;12.77;5.03;;;;;;;3.18;75.50;96060.53;5072644;28;20125;-54
2021/03/16 09:14:43;;;;;;;8.52;4.50;;;;;;;2.96;75.57;96055.69;5091538;28;20060;-50
2021/03/16 09:17:33;;;;;;;9.43;4.05;;;;;;;2.77;76.09;96068.91;5085928;28;20048;-48
2021/03/16 09:20:38;;;;;;;7.88;3.38;;;;;;;2.53;75.20;96063.44;5067570;28;20036;-47
2021/03/16 09:23:24;;;;;;;8.75;4.50;;;;;;;2.46;75.47;96056.84;5071005;28;20204;-52
2021/03/16 09:26:09;;;;;;;6.85;3.63;;;;;;;2.51;75.40;96065.63;5086932;28;20044;-53
2021/03/16 09:28:55;;;;;;;5.45;3.00;;;;;;;2.22;76.28;96073.53;5088021;28;20059;-51
2021/03/16 09:31:40;;;;;;;10.70;5.03;;;;;;;2.46;76.30;96079.00;5088043;28;20043;-51
2021/03/16 09:34:27;;;;;;;10.10;4.32;;;;;;;2.56;75.93;96072.78;5091031;28;20135;-51
2021/03/16 09:37:14;;;;;;;10.00;4.25;;;;;;;2.59;76.02;96077.59;5090550;28;20059;-48
2021/03/16 09:40:04;;;;;;;8.93;3.13;;;;;;;2.21;76.70;96084.47;5075738;28;20043;-48
2021/03/16 09:42:49;;;;;;;10.80;4.40;;;;;;;2.42;77.38;96085.19;5041421;28;20536;-50
2021/03/16 09:45:31;;;;;;;8.30;4.22;;;;;;;2.78;76.79;96088.41;5081523;28;20150;-54
2021/03/16 09:47:59;;;;;;;6.90;4.78;;;;;;;2.74;76.05;96085.50;5089935;28;20059;-49
2021/03/16 09:50:35;;;;;;;10.95;5.60;;;;;;;2.55;75.53;96088.03;5082328;28;20052;-52
2021/03/16 09:53:06;;;;;;;11.25;4.45;;;;;;;2.52;76.03;96088.56;5085724;28;20075;-53
2021/03/16 09:55:35;;;;;;;12.82;4.82;;;;;;;2.64;76.81;96082.09;5057233;28;20051;-52
2021/03/16 09:58:02;;;;;;;8.35;3.53;;;;;;;2.41;75.93;96088.94;5081848;28;20513;-51
2021/03/16 10:00:29;;;;;;;8.98;5.00;;;;;;;2.41;76.36;96089.72;5075180;28;20078;-51
2021/03/16 10:03:08;;;;;;;6.95;3.20;;;;;;;2.20;76.58;96096.22;5071905;28;20095;-46
2021/03/16 10:05:35;;;;;;;10.00;4.97;;;;;;;2.28;77.12;96096.47;5091220;28;20554;-47
2021/03/16 10:08:02;;;;;;;8.10;3.80;;;;;;;2.18;78.24;96096.53;5082695;28;20052;-50
2021/03/16 10:10:33;;;;;;;10.00;4.25;;;;;;;1.88;78.01;96084.09;5083453;28;20531;-49
2021/03/16 10:13:05;;;;;;;7.65;3.75;;;;;;;1.84;79.11;96089.16;5091697;28;20056;-50
2021/03/16 10:15:38;;;;;;;13.85;4.53;;;;;;;1.89;79.35;96091.03;5091926;28;20040;-49
2021/03/16 10:18:08;;;;;;;;;;;;;;;2.00;77.24;96100.59;5078367;28;20048;-52
2021/03/16 10:20:41;;;;;;;7.28;3.28;;;;;;;2.08;76.44;96101.88;5080015;28;19920;-48
2021/03/16 10:23:18;;;;;;;12.20;3.83;;;;;;;2.28;75.77;96098.34;5090758;28;20416;-49
2021/03/16 10:26:09;;;;;;;7.00;3.83;;;;;;;2.64;75.90;96100.81;5072585;28;20040;-54
2021/03/16 10:28:36;;;;;;;10.10;3.65;;;;;;;2.70;75.11;96097.03;5082573;28;20062;-47
2021/03/16 10:31:31;;;;;;;7.18;3.70;;;;;;;3.13;75.06;96089.22;5064362;28;20048;-48
2021/03/16 10:33:58;;;;;;;11.23;3.50;;;;;;;3.29;71.82;96079.97;5083667;28;20045;-50
2021/03/16 10:36:24;;;;;;;10.32;3.55;;;;;;;3.35;69.65;96089.56;5069016;28;20418;-51
2021/03/16 10:38:51;;;;;;;7.25;3.22;;;;;;;3.57;69.59;96091.72;5082768;28;20044;-52
2021/03/16 10:41:21;;;;;;;4.55;2.10;;;;;;;3.25;66.50;96078.94;5077224;28;20048;-47
2021/03/16 10:43:48;;;;;;;7.13;2.63;;;;;;;3.29;65.73;96082.66;5088700;28;20404;-47
2021/03/16 10:46:16;;;;;;;5.82;2.45;;;;;;;3.45;64.98;96065.38;5079328;28;20056;-49
2021/03/16 10:48:43;;;;;;;8.13;2.45;;;;;;;3.34;66.54;96082.59;5088589;28;20128;-47
2021/03/16 10:51:10;;;;;;;8.57;3.05;;;;;;;3.36;66.93;96082.31;5080185;28;20107;-52
2021/03/16 10:53:37;;;;;;;8.25;3.00;;;;;;;3.46;67.88;96093.72;5088403;28;20056;-55
2021/03/16 10:56:04;;;;;;;6.82;2.88;;;;;;;3.42;68.00;96078.53;5088771;28;20052;-50
2021/03/16 10:58:31;;;;;;;7.70;3.20;;;;;;;3.31;68.36;96079.69;5063965;28;20138;-46
2021/03/16 11:00:59;;;;;;;8.75;3.10;;;;;;;3.37;67.56;96087.38;5071988;28;20214;-48
2021/03/16 11:03:30;;;;;;;7.13;2.67;;;;;;;3.16;68.15;96077.97;5078672;28;20055;-48
2021/03/16 11:05:57;;;;;;;9.88;2.33;;;;;;;3.20;66.85;96087.00;5063418;28;20417;-52
2021/03/16 11:08:25;;;;;;;7.50;2.72;;;;;;;3.35;67.88;96086.88;5084799;28;20089;-45
2021/03/16 11:10:51;;;;;;;7.55;3.35;;;;;;;3.38;67.34;96088.16;5080439;28;20587;-45
2021/03/16 11:13:18;;;;;;;7.97;3.05;;;;;;;3.60;67.97;96087.69;5080926;28;20052;-51
2021/03/16 11:15:46;;;;;;;6.78;2.90;;;;;;;3.56;68.10;96092.03;5079691;28;20098;-48
2021/03/16 11:18:13;;;;;;;3.53;2.03;;;;;;;3.40;64.12;96078.78;5077594;28;20048;-50
2021/03/16 11:20:40;;;;;;;3.97;1.60;;;;;;;3.29;63.91;96074.63;5080422;28;20052;-49
2021/03/16 11:23:07;;;;;;;7.53;2.20;;;;;;;3.90;64.78;96075.84;5070859;28;20040;-50
2021/03/16 11:25:33;;;;;;;5.82;2.28;;;;;;;4.38;63.77;96089.19;5088688;28;20052;-49
2021/03/16 11:28:00;;;;;;;12.45;3.17;;;;;;;4.16;61.36;96084.38;5089714;28;20055;-49
2021/03/16 11:30:30;;;;;;;4.90;1.92;;;;;;;4.07;60.98;96094.94;5077223;28;20433;-53
2021/03/16 11:32:56;;;;;;;6.80;2.05;;;;;;;4.15;60.71;96098.84;5068788;28;20048;-50
2021/03/16 11:35:42;;;;;;;4.88;1.80;;;;;;;4.19;60.77;96092.66;5086711;28;20173;-50
2021/03/16 11:38:26;;;;;;;5.82;2.15;;;;;;;4.40;59.28;96092.38;5087456;28;20416;-52
2021/03/16 11:41:12;;;;;;;6.60;2.00;;;;;;;4.31;56.14;96094.88;5088214;28;20055;-50
2021/03/16 11:43:57;;;;;;;5.18;1.80;;;;;;;4.33;58.08;96087.38;5080035;28;20409;-51
2021/03/16 11:47:02;;;;;;;7.30;1.75;;;;;;;4.87;58.38;96085.25;5073543;28;20535;-50
2021/03/16 11:49:48;;;;;;;6.55;1.58;;;;;;;4.36;56.58;96088.69;5082379;28;20079;-55
2021/03/16 11:52:33;;;;;;;4.18;1.58;;;;;;;4.37;55.45;96096.41;5082140;28;20098;-54
2021/03/16 11:55:19;;;;;;;4.00;1.20;;;;;;;4.56;54.75;96080.38;5068269;28;20059;-52
2021/03/16 11:58:04;;;;;;;7.63;2.22;;;;;;;4.94;55.71;96093.75;5077783;28;20460;-53
2021/03/16 12:00:49;;;;;;;4.55;1.85;;;;;;;4.29;57.10;96090.91;5085920;28;20052;-55
2021/03/16 12:03:34;;;;;;;7.10;1.70;;;;;;;4.75;57.15;96088.41;5081125;28;20048;-54
2021/03/16 12:06:20;;;;;;;4.93;1.90;;;;;;;5.02;55.25;96098.44;5084220;28;20037;-53
2021/03/16 12:09:07;;;;;;;5.30;1.75;;;;;;;4.68;54.68;96094.13;5083754;28;20181;-52
2021/03/16 12:11:52;;;;;;;6.93;1.85;;;;;;;4.71;57.02;96086.56;5085906;28;20044;-53
2021/03/16 12:14:38;;;;;;;7.15;2.22;;;;;;;4.44;57.99;96083.47;5084402;28;20042;-53
2021/03/16 12:17:23;;;;;;;2.20;1.38;;;;;;;4.34;58.80;96088.97;5084077;28;20064;-49
2021/03/16 12:20:09;;;;;;;4.13;1.92;;;;;;;4.44;59.33;96098.75;5082381;28;20048;-44
2021/03/16 12:22:56;;;;;;;6.32;2.10;;;;;;;4.15;59.19;96102.31;5085048;28;20055;-42
2021/03/16 12:25:41;;;;;;;4.10;2.17;;;;;;;3.88;59.83;96096.75;5093892;28;20058;-46
2021/03/16 12:28:26;;;;;;;6.88;1.92;;;;;;;3.96;59.67;96090.78;5092226;28;20134;-43
2021/03/16 12:31:11;;;;;;;6.78;2.20;;;;;;;4.30;60.00;96093.31;5091943;28;20519;-50
2021/03/16 12:34:01;;;;;;;6.90;2.15;;;;;;;4.21;57.44;96103.06;5090447;28;20055;-44
2021/03/16 12:36:46;;;;;;;5.63;1.85;;;;;;;4.60;57.49;96102.81;5094282;28;20044;-45
2021/03/16 12:39:31;;;;;;;5.55;2.40;;;;;;;4.74;57.78;96097.50;5080031;28;20049;-47
2021/03/16 12:42:17;;;;;;;4.72;2.38;;;;;;;4.55;58.05;96099.38;5088555;28;20059;-53